Startpagina
METAR-TAF:

METAR-TAF

Vliegvelden :

Rarotonga, Cookeilanden

breedte: 21-12S, lengte: 159-49W, hoogte: 7 m

Actueel weer

Dit bericht is 43 minuten geleden gemaakt, om 14:00 UTC
Wind 2 kt uit het zuidoosten
Temperatuur 18°C
Vochtigheid 94%
Druk 1014 hPa
Zicht 10 km of meer
Weinig wolken op 2000 ft

METAR: NCRG 151400Z 14002KT 9999 FEW020 18/17 Q1014 RMK DEW

Tijdstip: 04:43 (14:43 UTC)

Verwachting

Dit bericht is 3 uur en het 40 minuten geleden gemaakt, om 11:03 UTC
Verwachting geldig van 15 om 12 UTC tot 16 om 12 UTC
Wind 5 kt uit het zuidoosten
Zicht 10 km of meer
Verspreide wolken op 1800 ft

TAF: NCRG 151103Z 1512/1612 14005KT 9999 SCT018

Waarnemingen en weersverwachtingen van meer dan 4000 vliegvelden (METAR en TAF).

De beschikbare stations zijn de gele en rode punten op de kaart.

Ga met uw muis naar het station om de naam te zien.

Klik dan om waarnemingen en weersverwachtingen te zien.

kaart wijzigen: klik op de groene knoppen met een zwart kruis om in te zoomen, op de groene knop met een streepje om uit te zoomen of op de groene pijlen voor aangrenzende kaarten.


METAR-TAF: